GOOY/DKR METAR and TAF weather

Enter ICAO airport designator
Station Type Date Time Source
GOOY METAR 2019/08/21 22:00 UTC NOAA

GOOY 212200Z 00000KT 8000 SCT013 28/25 Q1010


Station Type Date Time Source
GOOY Decoded METAR 2019/08/21 22:00 UTC NOAA

Station name not available
Aug 21, 2019 - 06:00 PM EDT / 2019.08.21 2200 UTC
Wind: Calm:0
Visibility: 4 mile(s):0
Sky conditions: partly cloudy
Temperature: 82 F (28 C)
Dew Point: 77 F (25 C)
Relative Humidity: 83%
Pressure (altimeter): 29.83 in. Hg (1010 hPa)
ob: GOOY 212200Z 00000KT 8000 SCT013 28/25 Q1010
cycle: 22

Station Type Date Time Source
GOOY TAF 2019/08/21 18:24 UTC NOAA

TAF GOOY 211730Z 2118/2224 22008KT 9999 SCT013 PROB30
TEMPO 2123/2205 4000 TSRA BKN012 FEW018CB

Example: see airport list